»·PEaware :: N6656 KIDA-KASE

N6656 :: KIDA-KASE

FLIGHT INFORMATION

Flight Status: Arrived
Operator: Privately registered:
United States
More flights under this callsign
Pilot: Jesse M. (22378)
Aircraft: CESSNA 550 CITATION 2/S2/BRAVO
(C550)
More flights by this aircraft type
Origin: KIDA Idaho Falls Regl
United States
Destination: KASE Aspen-Pitkin Co/Sardy
United States
More flights between these airports :: More routes between these airports
Route: GEGME PERTY SINSY SKIER DBL
File this flight plan on PilotEdge
Remarks: 104th_Knight / Youtube
Altitude:
(Current/Filed)
27,000ft
Speed:
(Current/Filed)
300kts
Departed: 07-Dec-18 09:42 AM
Arrived: 07-Dec-18 10:57 AM
Distance/Time
Traveled:
348nm/1:15
Distance/Time
To Go:
Arrived

Flight Plot

Page will automatically refresh every two minutes.

Flight plan parsing failed; only flown route is shown


Map Options




Map Legend


Flown Route
Filed Route
Departure Airport
Arrival Airport
Navaid (VOR, NDB)
Fix

Horizontal Profiles

Position Reports

Time Latitude Longitude Heading Altitude Ground
Speed
07-Dec-18 08:58 43.512394 -112.071235 36 4743ft 0kts
07-Dec-18 08:59 43.512394 -112.071235 36 4743ft 0kts
07-Dec-18 09:00 43.512394 -112.071235 36 4743ft 0kts
07-Dec-18 09:01 43.512394 -112.071235 36 4743ft 0kts
07-Dec-18 09:02 43.512394 -112.071235 36 4743ft 0kts
07-Dec-18 09:03 43.512394 -112.071235 36 4743ft 0kts
07-Dec-18 09:04 43.512394 -112.071235 36 4743ft 0kts
07-Dec-18 09:05 43.512394 -112.071235 36 4743ft 0kts
07-Dec-18 09:06 43.512394 -112.071235 36 4743ft 0kts
07-Dec-18 09:07 43.512394 -112.071235 36 4743ft 0kts
07-Dec-18 09:08 43.512394 -112.071235 36 4743ft 0kts
07-Dec-18 09:09 43.512394 -112.071235 36 4743ft 0kts
07-Dec-18 09:10 43.512394 -112.071235 36 4743ft 0kts
07-Dec-18 09:11 43.512394 -112.071235 36 4743ft 0kts
07-Dec-18 09:12 43.512394 -112.071235 36 4743ft 0kts
07-Dec-18 09:13 43.512394 -112.071235 36 4743ft 0kts
07-Dec-18 09:14 43.512394 -112.071235 36 4743ft 0kts
07-Dec-18 09:15 43.512394 -112.071235 36 4743ft 0kts
07-Dec-18 09:16 43.512394 -112.071235 36 4743ft 0kts
07-Dec-18 09:17 43.512394 -112.071235 36 4743ft 0kts
07-Dec-18 09:18 43.512394 -112.071235 36 4743ft 0kts
07-Dec-18 09:19 43.512394 -112.071235 36 4743ft 0kts
07-Dec-18 09:20 43.512394 -112.071235 36 4743ft 0kts
07-Dec-18 09:21 43.512394 -112.071235 36 4743ft 0kts
07-Dec-18 09:22 43.512394 -112.071235 36 4743ft 0kts
07-Dec-18 09:23 43.512394 -112.071235 36 4743ft 0kts
07-Dec-18 09:24 43.512394 -112.071235 36 4743ft 0kts
07-Dec-18 09:25 43.512394 -112.071235 36 4743ft 0kts
07-Dec-18 09:26 43.512394 -112.071235 36 4743ft 0kts
07-Dec-18 09:27 43.512394 -112.071235 36 4743ft 0kts
07-Dec-18 09:28 43.512465 -112.071128 67 4743ft 1kts
07-Dec-18 09:29 43.513114 -112.070345 38 4743ft 4kts
07-Dec-18 09:30 43.514202 -112.069678 340 4743ft 4kts
07-Dec-18 09:31 43.516269 -112.068421 38 4743ft 12kts
07-Dec-18 09:32 43.519215 -112.065252 37 4743ft 13kts
07-Dec-18 09:33 43.521177 -112.063212 348 4743ft 2kts
07-Dec-18 09:34 43.519704 -112.064728 218 4743ft 16kts
07-Dec-18 09:35 43.515721 -112.069009 219 4743ft 16kts
07-Dec-18 09:36 43.512074 -112.072925 218 4743ft 14kts
07-Dec-18 09:37 43.508600 -112.076675 218 4743ft 15kts
07-Dec-18 09:38 43.505415 -112.080097 219 4743ft 13kts
07-Dec-18 09:39 43.502578 -112.083149 216 4743ft 14kts
07-Dec-18 09:40 43.502600 -112.084938 328 4743ft 4kts
07-Dec-18 09:41 43.503464 -112.084121 36 4743ft 49kts
07-Dec-18 09:42 43.531900 -112.052092 41 6808ft 165kts
07-Dec-18 09:43 43.507680 -112.010034 178 9357ft 211kts
07-Dec-18 09:44 43.449479 -112.010459 175 12353ft 202kts
07-Dec-18 09:45 43.399452 -111.974064 141 14835ft 209kts
07-Dec-18 09:46 43.350640 -111.930718 155 17048ft 213kts
07-Dec-18 09:47 43.300530 -111.887487 153 18992ft 221kts
07-Dec-18 09:48 43.250350 -111.843892 153 20162ft 244kts
07-Dec-18 09:49 43.191790 -111.793628 153 21423ft 255kts
07-Dec-18 09:50 43.131260 -111.741940 153 22649ft 263kts
07-Dec-18 09:51 43.065717 -111.686211 152 23920ft 291kts
07-Dec-18 09:52 42.995487 -111.626467 152 25192ft 302kts
07-Dec-18 09:53 42.924464 -111.566204 153 26455ft 304kts
07-Dec-18 09:54 42.853426 -111.506209 153 27334ft 316kts
07-Dec-18 09:55 42.773523 -111.439189 152 27339ft 364kts
07-Dec-18 09:56 42.684099 -111.363940 151 27337ft 388kts
07-Dec-18 09:57 42.593308 -111.287776 152 27331ft 389kts
07-Dec-18 09:58 42.501817 -111.211476 152 27332ft 389kts
07-Dec-18 09:59 42.409954 -111.135125 152 27332ft 391kts
07-Dec-18 10:00 42.316859 -111.058001 152 27332ft 396kts
07-Dec-18 10:01 42.223174 -110.980669 152 27332ft 397kts
07-Dec-18 10:02 42.129551 -110.903666 152 27332ft 398kts
07-Dec-18 10:03 42.035785 -110.826829 152 27333ft 398kts
07-Dec-18 10:04 41.941401 -110.749753 152 27281ft 399kts
07-Dec-18 10:05 41.852586 -110.689660 160 27282ft 398kts
07-Dec-18 10:06 41.757753 -110.633831 160 27281ft 400kts
07-Dec-18 10:07 41.657017 -110.574754 160 27281ft 397kts
07-Dec-18 10:08 41.556463 -110.515940 160 27281ft 396kts
07-Dec-18 10:09 41.456234 -110.457522 160 27282ft 395kts
07-Dec-18 10:10 41.356331 -110.399483 160 27282ft 395kts
07-Dec-18 10:11 41.255862 -110.341308 160 27278ft 395kts
07-Dec-18 10:12 41.156075 -110.283721 160 27276ft 394kts
07-Dec-18 10:13 41.056771 -110.226542 161 27276ft 394kts
07-Dec-18 10:14 40.957689 -110.169788 161 27332ft 392kts
07-Dec-18 10:15 40.860250 -110.114013 160 27360ft 393kts
07-Dec-18 10:16 40.760389 -110.057230 161 27360ft 394kts
07-Dec-18 10:17 40.662519 -109.992538 155 27360ft 397kts
07-Dec-18 10:18 40.566826 -109.923392 157 27359ft 397kts
07-Dec-18 10:19 40.468503 -109.854332 157 27362ft 413kts
07-Dec-18 10:20 40.366693 -109.783156 157 27362ft 422kts
07-Dec-18 10:21 40.264894 -109.709044 142 27359ft 432kts
07-Dec-18 10:22 40.217452 -109.565214 109 27365ft 442kts
07-Dec-18 10:23 40.176624 -109.414799 109 27367ft 443kts
07-Dec-18 10:24 40.136047 -109.266129 110 27358ft 443kts
07-Dec-18 10:25 40.099975 -109.114501 87 27357ft 439kts
07-Dec-18 10:26 40.127760 -108.962549 69 27361ft 433kts
07-Dec-18 10:27 40.156748 -108.811434 91 27361ft 441kts
07-Dec-18 10:28 40.111368 -108.664067 116 27364ft 443kts
07-Dec-18 10:29 40.057912 -108.519919 116 27366ft 443kts
07-Dec-18 10:30 40.004335 -108.375722 116 27362ft 451kts
07-Dec-18 10:31 39.957473 -108.249886 117 26789ft 396kts
07-Dec-18 10:32 39.912091 -108.128573 117 25617ft 359kts
07-Dec-18 10:33 39.869480 -108.015411 117 24459ft 348kts
07-Dec-18 10:34 39.827108 -107.903038 117 24387ft 357kts
07-Dec-18 10:35 39.782858 -107.786103 117 24407ft 367kts
07-Dec-18 10:36 39.738195 -107.668658 117 23914ft 349kts
07-Dec-18 10:38 39.697330 -107.561508 122 23073ft 322kts
07-Dec-18 10:39 39.658948 -107.461231 122 22255ft 301kts
07-Dec-18 10:40 39.623242 -107.368319 119 21418ft 278kts
07-Dec-18 10:41 39.590612 -107.283887 118 20575ft 261kts
07-Dec-18 10:42 39.538624 -107.227979 157 19554ft 251kts
07-Dec-18 10:43 39.473927 -107.192634 158 18214ft 257kts
07-Dec-18 10:44 39.410414 -107.150322 158 16851ft 264kts
07-Dec-18 10:45 39.367385 -107.079706 91 15505ft 276kts
07-Dec-18 10:46 39.391424 -106.994991 20 14118ft 259kts
07-Dec-18 10:47 39.453711 -107.021247 310 13140ft 220kts
07-Dec-18 10:48 39.493851 -107.037553 68 13141ft 173kts
07-Dec-18 10:49 39.480257 -106.978832 142 13106ft 178kts
07-Dec-18 10:50 39.432398 -106.966999 164 13075ft 164kts
07-Dec-18 10:51 39.393433 -106.950179 159 13082ft 140kts
07-Dec-18 10:52 39.356431 -106.932566 161 12574ft 141kts
07-Dec-18 10:53 39.320826 -106.915537 160 11892ft 128kts
07-Dec-18 10:54 39.290220 -106.901105 163 10663ft 126kts
07-Dec-18 10:55 39.258167 -106.885593 159 8512ft 121kts
07-Dec-18 10:56 39.231049 -106.872624 159 7701ft 93kts
07-Dec-18 10:57 39.223420 -106.867933 35 7737ft 4kts
07-Dec-18 10:58 39.225995 -106.868879 56 7713ft 6kts
07-Dec-18 10:59 39.227578 -106.869134 340 7702ft 10kts
07-Dec-18 11:00 39.228759 -106.869133 249 7694ft 0kts
07-Dec-18 11:01 39.228759 -106.869133 249 7694ft 0kts

Navigation Log

Ident Type
Flight plan parsing failed, navigation log unavailable